createdAt,value
2016-09-17T00:00:07.238Z,99.99
2016-09-17T00:01:08.516Z,99.99
2016-09-17T00:02:10.050Z,99.99
2016-09-17T00:03:10.819Z,99.99
2016-09-17T00:04:12.008Z,99.99
2016-09-17T00:05:12.655Z,99.99
2016-09-17T00:06:13.397Z,99.87
2016-09-17T00:07:16.159Z,99.99
2016-09-17T00:08:16.831Z,99.99
2016-09-17T00:09:17.489Z,99.99
2016-09-17T00:10:18.125Z,99.99
2016-09-17T00:11:18.799Z,99.99
2016-09-17T00:12:19.466Z,99.87
2016-09-17T00:13:20.114Z,99.99
2016-09-17T00:14:20.763Z,99.96
2016-09-17T00:15:21.430Z,99.49
2016-09-17T00:16:22.100Z,99.58
2016-09-17T00:17:22.798Z,99.99
2016-09-17T00:18:23.541Z,99.73
2016-09-17T00:19:24.238Z,99.82
2016-09-17T00:20:24.903Z,99.73
2016-09-17T00:21:25.569Z,99.54
2016-09-17T00:22:26.210Z,99.44
2016-09-17T00:23:27.585Z,99.34
2016-09-17T00:24:28.256Z,99.73
2016-09-17T00:25:28.922Z,99.63
2016-09-17T00:26:29.793Z,99.54
2016-09-17T00:27:30.532Z,98.86
2016-09-17T00:28:31.226Z,98.86
2016-09-17T00:29:31.902Z,98.86
2016-09-17T00:30:32.534Z,99.15
2016-09-17T00:31:33.205Z,99.34
2016-09-17T00:32:33.935Z,99.34
2016-09-17T00:33:34.609Z,99.05
2016-09-17T00:34:35.287Z,98.77
2016-09-17T00:35:35.955Z,99.05
2016-09-17T00:36:36.642Z,98.48
2016-09-17T00:37:37.286Z,98.48
2016-09-17T00:38:37.952Z,98.77
2016-09-17T00:39:38.664Z,98.77
2016-09-17T00:40:39.318Z,98.48
2016-09-17T00:41:40.011Z,98.48
2016-09-17T00:42:40.647Z,98.58
2016-09-17T00:43:41.320Z,98.86
2016-09-17T00:44:41.982Z,99.05
2016-09-17T00:45:42.687Z,98.96
2016-09-17T00:46:43.327Z,98.86
2016-09-17T00:47:43.997Z,98.77
2016-09-17T00:48:44.637Z,99.63
2016-09-17T00:49:45.299Z,99.34
2016-09-17T00:50:45.945Z,99.82
2016-09-17T00:51:46.602Z,99.34
2016-09-17T00:52:47.257Z,99.34
2016-09-17T00:53:47.931Z,99.05
2016-09-17T00:54:48.600Z,99.34
2016-09-17T00:55:49.251Z,99.15
2016-09-17T00:56:49.908Z,99.34
2016-09-17T00:57:50.557Z,99.34
2016-09-17T00:58:51.207Z,99.05
2016-09-17T00:59:51.865Z,98.86
2016-09-17T01:00:52.524Z,98.38
2016-09-17T01:01:53.170Z,98.58
2016-09-17T01:02:53.827Z,98.38
2016-09-17T01:03:54.465Z,98.86
2016-09-17T01:04:55.110Z,98.86
2016-09-17T01:05:55.759Z,98.86
2016-09-17T01:06:56.397Z,98.77
2016-09-17T01:07:57.035Z,98.38
2016-09-17T01:08:57.696Z,98.96
2016-09-17T01:09:58.342Z,99.05
2016-09-17T01:10:58.993Z,98.38
2016-09-17T01:11:59.632Z,98.48
2016-09-17T01:13:00.279Z,98.77
2016-09-17T01:14:00.977Z,98.48
2016-09-17T01:15:01.616Z,98.48
2016-09-17T01:16:02.584Z,98.48
2016-09-17T01:17:03.229Z,98.58
2016-09-17T01:18:03.873Z,98.38
2016-09-17T01:19:04.522Z,98.48
2016-09-17T01:20:05.204Z,98.48
2016-09-17T01:21:05.838Z,98.48
2016-09-17T01:22:06.496Z,98.58
2016-09-17T01:23:08.247Z,97.91
2016-09-17T01:24:08.899Z,98.1
2016-09-17T01:25:09.549Z,97.81
2016-09-17T01:26:10.201Z,97.91
2016-09-17T01:27:10.880Z,98.19
2016-09-17T01:28:11.527Z,97.71
2016-09-17T01:29:12.375Z,98
2016-09-17T01:30:12.841Z,97.91
2016-09-17T01:31:13.511Z,97.91
2016-09-17T01:32:14.228Z,97.71
2016-09-17T01:33:14.868Z,97.81
2016-09-17T01:34:15.519Z,97.71
2016-09-17T01:35:16.169Z,98.1
2016-09-17T01:36:16.825Z,97.42
2016-09-17T01:37:17.488Z,97.81
2016-09-17T01:38:18.125Z,97.61
2016-09-17T01:39:18.791Z,97.33
2016-09-17T01:40:19.462Z,97.61
2016-09-17T01:41:20.131Z,97.61
2016-09-17T01:42:20.821Z,97.52
2016-09-17T01:43:21.482Z,97.42
2016-09-17T01:44:22.142Z,97.42
2016-09-17T01:45:22.807Z,97.52
2016-09-17T01:46:23.449Z,97.52
2016-09-17T01:47:24.075Z,97.33
2016-09-17T01:48:24.741Z,97.42
2016-09-17T01:49:25.374Z,97.42
2016-09-17T01:50:26.033Z,97.61
2016-09-17T01:51:26.688Z,97.61
2016-09-17T01:52:27.327Z,97.61
2016-09-17T01:53:27.996Z,97.61
2016-09-17T01:54:28.665Z,97.33
2016-09-17T01:55:29.301Z,97.04
2016-09-17T01:56:29.937Z,97.42
2016-09-17T01:57:30.600Z,97.24
2016-09-17T01:58:31.263Z,97.14
2016-09-17T01:59:31.917Z,97.24
2016-09-17T02:00:32.556Z,97.42
2016-09-17T02:01:33.214Z,97.04
2016-09-17T02:02:33.863Z,98.1
2016-09-17T02:03:34.531Z,98.05
2016-09-17T02:04:35.180Z,98.19
2016-09-17T02:05:35.836Z,98.77
2016-09-17T02:06:36.491Z,97.56
2016-09-17T02:07:37.134Z,98.43
2016-09-17T02:08:37.791Z,98.14
2016-09-17T02:09:38.433Z,98.43
2016-09-17T02:10:39.080Z,98.82
2016-09-17T02:11:39.728Z,98.91
2016-09-17T02:12:40.387Z,99.01
2016-09-17T02:13:41.042Z,98.72
2016-09-17T02:14:41.678Z,98.91
2016-09-17T02:15:42.317Z,99.1
2016-09-17T02:16:42.961Z,98.53
2016-09-17T02:17:43.610Z,98.82
2016-09-17T02:18:44.270Z,98.91
2016-09-17T02:19:44.914Z,98.67
2016-09-17T02:20:45.559Z,99.05
2016-09-17T02:21:46.540Z,99.01
2016-09-17T02:22:47.180Z,98.91
2016-09-17T02:23:47.829Z,98.82
2016-09-17T02:24:48.465Z,98.53
2016-09-17T02:25:49.119Z,98.82
2016-09-17T02:26:49.751Z,98.62
2016-09-17T02:27:50.402Z,98.48
2016-09-17T02:28:51.039Z,98.48
2016-09-17T02:29:51.687Z,98.38
2016-09-17T02:30:52.333Z,98.43
2016-09-17T02:31:52.980Z,98.53
2016-09-17T02:32:53.632Z,98.91
2016-09-17T02:33:54.276Z,98.43
2016-09-17T02:34:54.915Z,98.86
2016-09-17T02:35:55.577Z,98.38
2016-09-17T02:36:56.212Z,98.62
2016-09-17T02:37:56.867Z,98.77
2016-09-17T02:38:57.544Z,98.77
2016-09-17T02:39:58.185Z,98.77
2016-09-17T02:40:58.850Z,98.33
2016-09-17T02:41:59.492Z,98.53
2016-09-17T02:43:00.136Z,98.29
2016-09-17T02:44:00.772Z,98.48
2016-09-17T02:45:01.413Z,98.33
2016-09-17T02:46:02.060Z,97.66
2016-09-17T02:47:02.712Z,98.53
2016-09-17T02:48:03.353Z,98.53
2016-09-17T02:49:03.994Z,97.86
2016-09-17T02:50:04.648Z,98.05
2016-09-17T02:51:05.311Z,98.62
2016-09-17T02:52:05.961Z,98.33
2016-09-17T02:53:06.620Z,98.43
2016-09-17T02:54:07.288Z,98.53
2016-09-17T02:55:07.931Z,98.43
2016-09-17T02:56:08.580Z,98.53
2016-09-17T02:57:09.241Z,98.33
2016-09-17T02:58:09.903Z,98.14
2016-09-17T02:59:10.572Z,98.24
2016-09-17T03:00:11.210Z,98.33
2016-09-17T03:01:11.865Z,98.33
2016-09-17T03:02:12.515Z,98.62
2016-09-17T03:03:13.166Z,98.43
2016-09-17T03:04:13.816Z,98.05
2016-09-17T03:05:14.632Z,98.53
2016-09-17T03:06:16.425Z,98.53
2016-09-17T03:07:16.928Z,98.38
2016-09-17T03:08:17.582Z,98.33
2016-09-17T03:09:18.231Z,98.53
2016-09-17T03:10:18.888Z,98.24
2016-09-17T03:11:19.531Z,98.33
2016-09-17T03:12:20.200Z,98.24
2016-09-17T03:13:20.863Z,98.33
2016-09-17T03:14:21.535Z,98.62
2016-09-17T03:15:22.198Z,98.53
2016-09-17T03:16:22.837Z,98.53
2016-09-17T03:17:23.497Z,98.53
2016-09-17T03:18:24.132Z,98.91
2016-09-17T03:19:24.784Z,98.91
2016-09-17T03:20:25.421Z,98.82
2016-09-17T03:21:26.090Z,99.49
2016-09-17T03:22:26.764Z,99.39
2016-09-17T03:23:27.436Z,99.29
2016-09-17T03:24:28.116Z,99.2
2016-09-17T03:25:28.749Z,98.91
2016-09-17T03:26:29.403Z,99.1
2016-09-17T03:27:30.074Z,99.2
2016-09-17T03:28:30.748Z,98.91
2016-09-17T03:29:31.413Z,98.91
2016-09-17T03:30:32.050Z,99.1
2016-09-17T03:31:32.715Z,98.91
2016-09-17T03:32:33.405Z,99.1
2016-09-17T03:33:34.079Z,98.62
2016-09-17T03:34:34.727Z,98.72
2016-09-17T03:35:35.396Z,99.49
2016-09-17T03:36:36.043Z,99.58
2016-09-17T03:37:36.687Z,99.49
2016-09-17T03:38:37.364Z,99.44
2016-09-17T03:39:38.039Z,99.58
2016-09-17T03:40:38.856Z,99.44
2016-09-17T03:41:39.493Z,99.39
2016-09-17T03:42:40.164Z,99.58
2016-09-17T03:43:40.864Z,99.2
2016-09-17T03:44:41.498Z,99.77
2016-09-17T03:45:42.171Z,99.68
2016-09-17T03:46:42.811Z,98.82
2016-09-17T03:47:43.472Z,98.72
2016-09-17T03:48:44.120Z,98.91
2016-09-17T03:49:44.819Z,99.44
2016-09-17T03:50:45.502Z,98.72
2016-09-17T03:51:46.153Z,98.82
2016-09-17T03:52:46.822Z,99.1
2016-09-17T03:53:47.465Z,98.72
2016-09-17T03:54:48.114Z,99.39
2016-09-17T03:55:48.809Z,99.39
2016-09-17T03:56:49.462Z,99.68
2016-09-17T03:57:50.137Z,99.44
2016-09-17T03:58:50.792Z,99.49
2016-09-17T03:59:51.432Z,99.44
2016-09-17T04:00:52.103Z,99.39
2016-09-17T04:01:52.855Z,99.44
2016-09-17T04:02:53.512Z,99.44
2016-09-17T04:03:54.171Z,99.53
2016-09-17T04:04:54.817Z,99.24
2016-09-17T04:05:55.485Z,99.99
2016-09-17T04:06:56.225Z,99.99
2016-09-17T04:07:56.882Z,99.99
2016-09-17T04:08:57.565Z,99.99
2016-09-17T04:09:58.223Z,99.99
2016-09-17T04:10:58.898Z,99.99
2016-09-17T04:11:59.558Z,99.99
2016-09-17T04:13:00.196Z,99.99
2016-09-17T04:14:00.824Z,99.99
2016-09-17T04:15:01.471Z,99.99
2016-09-17T04:16:02.114Z,99.99
2016-09-17T04:17:02.769Z,99.99
2016-09-17T04:18:03.475Z,99.99
2016-09-17T04:19:04.125Z,99.99
2016-09-17T04:20:04.778Z,99.99
2016-09-17T04:21:05.435Z,99.99
2016-09-17T04:22:06.083Z,99.99
2016-09-17T04:23:06.721Z,99.99
2016-09-17T04:24:07.395Z,99.99
2016-09-17T04:25:08.044Z,99.99
2016-09-17T04:26:08.711Z,99.99
2016-09-17T04:27:09.401Z,99.99
2016-09-17T04:28:10.067Z,99.99
2016-09-17T04:29:10.727Z,99.99
2016-09-17T04:30:11.374Z,99.99
2016-09-17T04:31:12.090Z,99.99
2016-09-17T04:32:12.763Z,99.99
2016-09-17T04:33:13.426Z,99.99
2016-09-17T04:34:14.062Z,99.99
2016-09-17T04:35:14.723Z,99.99
2016-09-17T04:36:15.389Z,99.99
2016-09-17T04:37:16.036Z,99.99
2016-09-17T04:38:16.695Z,99.99
2016-09-17T04:39:17.343Z,99.99
2016-09-17T04:40:17.993Z,99.99
2016-09-17T04:41:18.643Z,99.99
2016-09-17T04:42:19.287Z,99.99
2016-09-17T04:43:19.934Z,99.99
2016-09-17T04:44:20.573Z,99.99
2016-09-17T04:45:21.213Z,99.99
2016-09-17T04:46:21.869Z,99.99
2016-09-17T04:47:22.514Z,99.99
2016-09-17T04:48:23.163Z,99.99
2016-09-17T04:49:23.829Z,99.99
2016-09-17T04:50:24.471Z,99.99
2016-09-17T04:51:25.123Z,99.99
2016-09-17T04:52:25.788Z,99.99
2016-09-17T04:53:26.445Z,99.99
2016-09-17T04:54:27.096Z,99.99
2016-09-17T04:55:27.758Z,99.99
2016-09-17T04:56:28.431Z,99.99
2016-09-17T04:57:29.076Z,99.99
2016-09-17T04:58:29.729Z,99.99
2016-09-17T04:59:30.396Z,99.99
2016-09-17T05:00:31.029Z,99.99
2016-09-17T05:01:31.697Z,99.99
2016-09-17T05:02:32.334Z,99.99
2016-09-17T05:03:32.979Z,99.99
2016-09-17T05:04:33.652Z,99.99
2016-09-17T05:05:34.299Z,99.99
2016-09-17T05:06:34.958Z,99.99
2016-09-17T05:07:35.622Z,99.99
2016-09-17T05:08:36.266Z,99.99
2016-09-17T05:09:36.897Z,99.99
2016-09-17T05:10:37.534Z,99.99
2016-09-17T05:11:38.182Z,99.99
2016-09-17T05:12:38.849Z,99.99
2016-09-17T05:13:39.500Z,99.99
2016-09-17T05:14:40.147Z,99.99
2016-09-17T05:15:40.796Z,99.99
2016-09-17T05:16:41.436Z,99.99
2016-09-17T05:17:42.083Z,99.99
2016-09-17T05:18:42.758Z,99.99
2016-09-17T05:19:43.417Z,99.99
2016-09-17T05:20:44.056Z,99.99
2016-09-17T05:21:44.731Z,99.99
2016-09-17T05:22:45.382Z,99.99
2016-09-17T05:23:46.022Z,99.99
2016-09-17T05:24:46.662Z,99.99
2016-09-17T05:25:47.333Z,99.99
2016-09-17T05:26:47.990Z,99.99
2016-09-17T05:27:48.626Z,99.99
2016-09-17T05:28:49.275Z,99.99
2016-09-17T05:29:49.945Z,99.99
2016-09-17T05:30:50.583Z,99.99
2016-09-17T05:31:51.235Z,99.99
2016-09-17T05:32:51.898Z,99.99
2016-09-17T05:33:52.537Z,99.99
2016-09-17T05:34:53.187Z,99.99
2016-09-17T05:35:53.831Z,99.99
2016-09-17T05:36:54.477Z,99.99
2016-09-17T05:37:55.144Z,99.99
2016-09-17T05:38:55.800Z,99.99
2016-09-17T05:39:56.462Z,99.99
2016-09-17T05:40:57.108Z,99.99
2016-09-17T05:41:57.745Z,99.99
2016-09-17T05:42:58.387Z,99.99
2016-09-17T05:43:59.033Z,99.99
2016-09-17T05:44:59.666Z,99.99
2016-09-17T05:46:00.335Z,99.99
2016-09-17T05:47:00.970Z,99.99
2016-09-17T05:48:01.631Z,99.99
2016-09-17T05:49:02.276Z,99.99
2016-09-17T05:50:02.940Z,99.99
2016-09-17T05:51:03.603Z,99.99
2016-09-17T05:52:04.253Z,99.99
2016-09-17T05:53:04.905Z,99.99
2016-09-17T05:54:05.546Z,99.99
2016-09-17T05:55:06.208Z,99.99
2016-09-17T05:56:06.877Z,99.99
2016-09-17T05:57:07.519Z,99.99
2016-09-17T05:58:08.185Z,99.99
2016-09-17T05:59:08.837Z,99.99
2016-09-17T06:00:09.541Z,99.99
2016-09-17T06:01:10.208Z,99.99
2016-09-17T06:02:10.880Z,99.99
2016-09-17T06:03:11.527Z,99.99
2016-09-17T06:04:12.175Z,99.99
2016-09-17T06:05:12.821Z,99.99
2016-09-17T06:06:13.494Z,99.99
2016-09-17T06:07:14.141Z,99.99
2016-09-17T06:08:14.790Z,99.99
2016-09-17T06:09:15.451Z,99.99
2016-09-17T06:10:16.106Z,99.99
2016-09-17T06:11:16.759Z,99.99
2016-09-17T06:12:17.423Z,99.99
2016-09-17T06:13:18.073Z,99.99
2016-09-17T06:14:18.734Z,99.99
2016-09-17T06:15:19.375Z,99.99
2016-09-17T06:16:20.029Z,99.99
2016-09-17T06:17:20.684Z,99.99
2016-09-17T06:18:21.326Z,99.99
2016-09-17T06:19:21.990Z,99.99
2016-09-17T06:20:22.655Z,99.99
2016-09-17T06:21:23.315Z,99.99
2016-09-17T06:22:23.976Z,99.99
2016-09-17T06:23:24.628Z,99.99
2016-09-17T06:24:25.271Z,99.99
2016-09-17T06:25:25.920Z,99.99
2016-09-17T06:26:26.578Z,99.99
2016-09-17T06:27:27.237Z,99.99
2016-09-17T06:28:27.892Z,99.99
2016-09-17T06:29:28.556Z,99.99
2016-09-17T06:30:29.188Z,99.99
2016-09-17T06:31:29.836Z,99.99
2016-09-17T06:32:30.473Z,99.99
2016-09-17T06:33:31.124Z,99.99
2016-09-17T06:34:31.769Z,99.99
2016-09-17T06:35:32.422Z,99.99
2016-09-17T06:36:33.062Z,99.99
2016-09-17T06:37:33.723Z,99.99
2016-09-17T06:38:34.359Z,99.99
2016-09-17T06:39:35.010Z,99.99
2016-09-17T06:40:35.652Z,99.99
2016-09-17T06:41:36.315Z,99.99
2016-09-17T06:42:36.951Z,99.99
2016-09-17T06:43:37.613Z,99.99
2016-09-17T06:44:38.277Z,99.99
2016-09-17T06:45:38.932Z,99.99
2016-09-17T06:46:39.579Z,99.99
2016-09-17T06:47:40.237Z,99.99
2016-09-17T06:48:40.883Z,99.99
2016-09-17T06:49:41.546Z,99.99
2016-09-17T06:50:42.205Z,99.99
2016-09-17T06:51:42.849Z,99.99
2016-09-17T06:52:43.506Z,99.99
2016-09-17T06:53:44.167Z,99.99
2016-09-17T06:54:44.822Z,99.99
2016-09-17T06:55:45.471Z,99.99
2016-09-17T06:56:46.114Z,99.99
2016-09-17T06:57:46.775Z,99.99
2016-09-17T06:58:47.430Z,99.99
2016-09-17T06:59:48.067Z,99.99
2016-09-17T07:00:48.750Z,99.99
2016-09-17T07:01:49.410Z,99.99
2016-09-17T07:02:50.042Z,99.99
2016-09-17T07:03:50.689Z,99.99
2016-09-17T07:04:51.334Z,99.99
2016-09-17T07:05:51.981Z,99.99
2016-09-17T07:06:52.628Z,99.99
2016-09-17T07:07:53.283Z,99.99
2016-09-17T07:08:53.951Z,99.99
2016-09-17T07:09:54.631Z,99.99
2016-09-17T07:10:55.259Z,99.99
2016-09-17T07:11:55.917Z,99.99
2016-09-17T07:12:56.588Z,99.99
2016-09-17T07:13:57.253Z,99.99
2016-09-17T07:14:57.897Z,99.99
2016-09-17T07:15:58.566Z,99.99
2016-09-17T07:16:59.217Z,99.99
2016-09-17T07:17:59.864Z,99.99
2016-09-17T07:19:00.533Z,99.99
2016-09-17T07:20:01.196Z,99.99
2016-09-17T07:21:01.862Z,99.99
2016-09-17T07:22:02.501Z,99.99
2016-09-17T07:23:03.162Z,99.99
2016-09-17T07:24:03.843Z,99.99
2016-09-17T07:25:04.493Z,99.99
2016-09-17T07:26:05.143Z,99.99
2016-09-17T07:27:05.971Z,99.99
2016-09-17T07:28:06.635Z,99.99
2016-09-17T07:29:07.311Z,99.99
2016-09-17T07:30:07.998Z,99.99
2016-09-17T07:31:08.660Z,99.99
2016-09-17T07:32:09.438Z,99.99
2016-09-17T07:33:10.061Z,99.99
2016-09-17T07:34:10.738Z,99.99
2016-09-17T07:35:11.408Z,99.99
2016-09-17T07:36:12.061Z,99.99
2016-09-17T07:37:12.747Z,99.99
2016-09-17T07:38:13.444Z,99.99
2016-09-17T07:39:14.090Z,99.99
2016-09-17T07:40:14.761Z,99.99
2016-09-17T07:41:15.432Z,99.99
2016-09-17T07:42:16.116Z,99.99
2016-09-17T07:43:16.786Z,99.99
2016-09-17T07:44:17.447Z,99.99
2016-09-17T07:45:18.113Z,99.99
2016-09-17T07:46:18.763Z,99.99
2016-09-17T07:47:19.407Z,99.99
2016-09-17T07:48:20.071Z,99.99
2016-09-17T07:49:20.732Z,99.99
2016-09-17T07:50:21.387Z,99.99
2016-09-17T07:51:22.050Z,99.99
2016-09-17T07:52:22.718Z,99.99
2016-09-17T07:53:23.389Z,99.99
2016-09-17T07:54:24.035Z,99.99
2016-09-17T07:55:24.687Z,99.99
2016-09-17T07:56:25.332Z,99.99
2016-09-17T07:57:25.976Z,99.99
2016-09-17T07:58:26.617Z,99.99
2016-09-17T07:59:27.269Z,99.99
2016-09-17T08:00:27.923Z,99.99
2016-09-17T08:01:28.571Z,99.99
2016-09-17T08:02:29.235Z,99.99
2016-09-17T08:03:29.885Z,99.99
2016-09-17T08:04:30.577Z,99.99
2016-09-17T08:05:31.228Z,99.99
2016-09-17T08:06:31.880Z,99.99
2016-09-17T08:07:32.555Z,99.99
2016-09-17T08:08:33.209Z,99.99
2016-09-17T08:09:33.861Z,99.99
2016-09-17T08:10:34.526Z,99.99
2016-09-17T08:11:35.235Z,99.99
2016-09-17T08:12:35.883Z,99.99
2016-09-17T08:13:36.542Z,99.99
2016-09-17T08:14:37.207Z,99.99
2016-09-17T08:15:37.854Z,99.99
2016-09-17T08:16:38.520Z,99.99
2016-09-17T08:17:39.157Z,99.99
2016-09-17T08:18:39.805Z,99.99
2016-09-17T08:19:40.471Z,99.99
2016-09-17T08:20:41.111Z,99.99
2016-09-17T08:21:41.760Z,99.99
2016-09-17T08:22:42.395Z,99.99
2016-09-17T08:23:43.079Z,99.99
2016-09-17T08:24:43.736Z,99.99
2016-09-17T08:25:44.510Z,99.99
2016-09-17T08:26:45.182Z,99.99
2016-09-17T08:27:45.817Z,99.99
2016-09-17T08:28:46.473Z,99.99
2016-09-17T08:29:47.141Z,99.99
2016-09-17T08:30:47.795Z,99.99
2016-09-17T08:31:48.438Z,99.99
2016-09-17T08:32:49.119Z,99.99
2016-09-17T08:33:49.788Z,99.99
2016-09-17T08:34:50.461Z,99.99
2016-09-17T08:35:51.128Z,99.99
2016-09-17T08:36:51.804Z,99.99
2016-09-17T08:37:52.466Z,99.99
2016-09-17T08:38:53.107Z,99.99
2016-09-17T08:39:53.764Z,99.99
2016-09-17T08:40:54.404Z,99.99
2016-09-17T08:41:55.061Z,99.99
2016-09-17T08:42:55.728Z,99.99
2016-09-17T08:43:56.383Z,99.99
2016-09-17T08:44:57.070Z,99.99
2016-09-17T08:45:57.709Z,99.99
2016-09-17T08:46:58.357Z,99.99
2016-09-17T08:47:59.044Z,99.99
2016-09-17T08:48:59.701Z,99.99
2016-09-17T08:50:00.341Z,99.99
2016-09-17T08:51:01.017Z,99.99
2016-09-17T08:52:01.677Z,99.99
2016-09-17T08:53:02.345Z,99.99
2016-09-17T08:54:03.004Z,99.99
2016-09-17T08:55:03.666Z,99.05
2016-09-17T08:56:04.309Z,99.99
2016-09-17T08:57:04.989Z,99.99
2016-09-17T08:58:05.673Z,99.99
2016-09-17T08:59:06.448Z,99.99
2016-09-17T09:00:07.020Z,99.99
2016-09-17T09:01:07.715Z,99.99
2016-09-17T09:02:08.355Z,99.99
2016-09-17T09:03:09.032Z,97.9
2016-09-17T09:04:09.695Z,99.99
2016-09-17T09:05:10.386Z,99.99
2016-09-17T09:06:11.063Z,99.99
2016-09-17T09:07:11.859Z,99.73
2016-09-17T09:08:12.554Z,99.99
2016-09-17T09:09:13.213Z,99.01
2016-09-17T09:10:13.929Z,99.99
2016-09-17T09:11:14.622Z,99.99
2016-09-17T09:12:15.295Z,99.99
2016-09-17T09:13:15.950Z,99.01
2016-09-17T09:14:16.619Z,99.2
2016-09-17T09:15:17.309Z,97.23
2016-09-17T09:16:17.976Z,99.73
2016-09-17T09:17:18.671Z,99.53
2016-09-17T09:18:19.350Z,99.44
2016-09-17T09:19:20.012Z,99.15
2016-09-17T09:20:20.750Z,97.76
2016-09-17T09:21:21.443Z,97.76
2016-09-17T09:22:22.103Z,98.72
2016-09-17T09:23:23.463Z,96.99
2016-09-17T09:24:24.130Z,95.75
2016-09-17T09:25:24.787Z,96.61
2016-09-17T09:26:25.446Z,97.09
2016-09-17T09:27:26.121Z,99.58
2016-09-17T09:28:26.825Z,97.38
2016-09-17T09:29:27.529Z,95.55
2016-09-17T09:30:28.183Z,96.51
2016-09-17T09:31:28.838Z,95.94
2016-09-17T09:32:29.508Z,95.89
2016-09-17T09:33:30.198Z,96.56
2016-09-17T09:34:30.865Z,96.56
2016-09-17T09:35:31.546Z,96.85
2016-09-17T09:36:32.203Z,96.37
2016-09-17T09:37:32.868Z,96.08
2016-09-17T09:38:33.519Z,96.47
2016-09-17T09:39:34.192Z,98.1
2016-09-17T09:40:34.919Z,95.79
2016-09-17T09:41:35.617Z,95.41
2016-09-17T09:42:36.295Z,96.37
2016-09-17T09:43:37.850Z,95.6
2016-09-17T09:44:38.517Z,98.1
2016-09-17T09:45:39.221Z,96.66
2016-09-17T09:46:39.892Z,95.7
2016-09-17T09:47:40.559Z,97.14
2016-09-17T09:48:41.267Z,96.85
2016-09-17T09:49:41.925Z,95.6
2016-09-17T09:50:42.632Z,95.12
2016-09-17T09:51:43.301Z,92.33
2016-09-17T09:52:43.965Z,92.82
2016-09-17T09:53:44.625Z,93.2
2016-09-17T09:54:45.328Z,95.21
2016-09-17T09:55:45.993Z,93.3
2016-09-17T09:56:46.677Z,92.24
2016-09-17T09:57:47.337Z,92.72
2016-09-17T09:58:48.013Z,92.91
2016-09-17T09:59:48.685Z,92.57
2016-09-17T10:00:49.349Z,93.34
2016-09-17T10:01:50.000Z,91.28
2016-09-17T10:02:50.672Z,92
2016-09-17T10:03:51.325Z,92.96
2016-09-17T10:04:52.008Z,92.38
2016-09-17T10:05:52.706Z,92.96
2016-09-17T10:06:53.356Z,93.73
2016-09-17T10:07:54.030Z,92.19
2016-09-17T10:08:54.686Z,92.19
2016-09-17T10:09:55.368Z,91.52
2016-09-17T10:10:56.024Z,91.28
2016-09-17T10:11:56.767Z,92.38
2016-09-17T10:12:57.364Z,92.29
2016-09-17T10:13:58.038Z,92.72
2016-09-17T10:14:58.693Z,91.75
2016-09-17T10:15:59.343Z,93.39
2016-09-17T10:17:00.102Z,91.47
2016-09-17T10:18:00.723Z,91.66
2016-09-17T10:19:01.420Z,90.22
2016-09-17T10:20:02.102Z,89.26
2016-09-17T10:21:02.754Z,91.18
2016-09-17T10:22:03.423Z,91.22
2016-09-17T10:23:04.090Z,90.17
2016-09-17T10:24:04.763Z,91.61
2016-09-17T10:25:05.425Z,92.47
2016-09-17T10:26:06.097Z,91.03
2016-09-17T10:27:06.777Z,89.21
2016-09-17T10:28:08.220Z,88.15
2016-09-17T10:29:08.875Z,88.73
2016-09-17T10:30:09.533Z,89.69
2016-09-17T10:31:10.208Z,89.5
2016-09-17T10:32:10.854Z,90.36
2016-09-17T10:33:11.551Z,90.26
2016-09-17T10:34:12.198Z,91.9
2016-09-17T10:35:12.857Z,90.75
2016-09-17T10:36:13.504Z,88.92
2016-09-17T10:37:14.163Z,89.3
2016-09-17T10:38:14.809Z,89.3
2016-09-17T10:39:15.465Z,88.24
2016-09-17T10:40:16.116Z,88.82
2016-09-17T10:41:16.760Z,88.73
2016-09-17T10:42:17.429Z,89.21
2016-09-17T10:43:18.089Z,89.5
2016-09-17T10:44:18.748Z,89.78
2016-09-17T10:45:19.418Z,88.87
2016-09-17T10:46:20.071Z,89.01
2016-09-17T10:47:20.721Z,89.11
2016-09-17T10:48:21.394Z,88.53
2016-09-17T10:49:22.056Z,86.9
2016-09-17T10:50:22.709Z,86.75
2016-09-17T10:51:23.379Z,85.65
2016-09-17T10:52:24.026Z,85.55
2016-09-17T10:53:24.698Z,85.36
2016-09-17T10:54:25.347Z,85.88
2016-09-17T10:55:26.015Z,86.65
2016-09-17T10:56:26.678Z,86.08
2016-09-17T10:57:27.338Z,84.16
2016-09-17T10:58:27.991Z,83.67
2016-09-17T10:59:28.643Z,84.06
2016-09-17T11:00:29.303Z,83.67
2016-09-17T11:01:29.953Z,83.19
2016-09-17T11:02:30.652Z,83.62
2016-09-17T11:03:31.314Z,81.79
2016-09-17T11:04:31.966Z,82.37
2016-09-17T11:05:32.618Z,83.04
2016-09-17T11:06:33.287Z,83.62
2016-09-17T11:07:33.947Z,83.42
2016-09-17T11:08:34.612Z,82.46
2016-09-17T11:09:35.266Z,83.23
2016-09-17T11:10:35.915Z,81.88
2016-09-17T11:11:36.585Z,83.23
2016-09-17T11:12:37.669Z,84
2016-09-17T11:13:38.133Z,84.19
2016-09-17T11:14:38.814Z,84.67
2016-09-17T11:15:39.468Z,83.33
2016-09-17T11:16:40.110Z,82.94
2016-09-17T11:17:40.784Z,83.52
2016-09-17T11:18:41.509Z,84.67
2016-09-17T11:19:42.228Z,85
2016-09-17T11:20:42.915Z,84.29
2016-09-17T11:21:43.569Z,84.53
2016-09-17T11:22:44.240Z,84.05
2016-09-17T11:23:44.882Z,84.72
2016-09-17T11:24:45.534Z,84.81
2016-09-17T11:25:46.261Z,83.85
2016-09-17T11:26:46.954Z,83.56
2016-09-17T11:27:47.607Z,83.28
2016-09-17T11:28:48.273Z,82.79
2016-09-17T11:29:48.979Z,83.47
2016-09-17T11:30:49.681Z,83.66
2016-09-17T11:31:50.353Z,82.7
2016-09-17T11:32:51.011Z,82.41
2016-09-17T11:33:51.692Z,83.72
2016-09-17T11:34:52.362Z,83.04
2016-09-17T11:35:53.027Z,82.94
2016-09-17T11:36:53.691Z,83.42
2016-09-17T11:37:54.345Z,83.62
2016-09-17T11:38:55.056Z,83.72
2016-09-17T11:39:55.765Z,82.94
2016-09-17T11:40:56.447Z,82.46
2016-09-17T11:41:57.123Z,82.85
2016-09-17T11:42:57.795Z,82.56
2016-09-17T11:43:58.458Z,82.56
2016-09-17T11:44:59.144Z,80.63
2016-09-17T11:45:59.810Z,80.73
2016-09-17T11:47:00.472Z,80.73
2016-09-17T11:48:01.150Z,80.83
2016-09-17T11:49:01.827Z,80.73
2016-09-17T11:50:02.495Z,79.86
2016-09-17T11:51:03.177Z,79.67
2016-09-17T11:52:03.841Z,80.63
2016-09-17T11:53:04.504Z,80.25
2016-09-17T11:54:05.163Z,80.29
2016-09-17T11:55:05.856Z,79.9
2016-09-17T11:56:06.529Z,79.38
2016-09-17T11:57:07.212Z,79.38
2016-09-17T11:58:07.877Z,79.38
2016-09-17T11:59:08.540Z,79.43
2016-09-17T12:00:09.199Z,79.52
2016-09-17T12:01:09.844Z,79.43
2016-09-17T12:02:10.516Z,79.52
2016-09-17T12:03:11.179Z,80
2016-09-17T12:04:11.837Z,79.71
2016-09-17T12:05:12.525Z,79.52
2016-09-17T12:06:13.168Z,79.71
2016-09-17T12:07:13.827Z,79.13
2016-09-17T12:08:14.511Z,79.03
2016-09-17T12:09:15.161Z,78.27
2016-09-17T12:10:15.813Z,77.5
2016-09-17T12:11:16.561Z,77.21
2016-09-17T12:12:17.186Z,77.01
2016-09-17T12:13:17.901Z,76.25
2016-09-17T12:14:18.664Z,76.25
2016-09-17T12:15:19.316Z,76.15
2016-09-17T12:16:19.988Z,75.09
2016-09-17T12:17:20.687Z,74.71
2016-09-17T12:18:21.360Z,75.57
2016-09-17T12:19:22.056Z,75.38
2016-09-17T12:20:22.668Z,74.61
2016-09-17T12:21:23.349Z,75.09
2016-09-17T12:22:24.003Z,75.86
2016-09-17T12:23:24.673Z,74.9
2016-09-17T12:24:25.313Z,74.71
2016-09-17T12:25:25.971Z,74.71
2016-09-17T12:26:26.631Z,75.28
2016-09-17T12:27:27.277Z,75.09
2016-09-17T12:28:27.958Z,73.07
2016-09-17T12:29:28.734Z,72.59
2016-09-17T12:30:29.403Z,72.01
2016-09-17T12:31:30.079Z,72.01
2016-09-17T12:32:30.748Z,72.3
2016-09-17T12:33:31.406Z,72.59
2016-09-17T12:34:32.061Z,73.26
2016-09-17T12:35:32.734Z,73.26
2016-09-17T12:36:33.395Z,73.55
2016-09-17T12:37:34.057Z,73.32
2016-09-17T12:38:34.704Z,73.65
2016-09-17T12:39:35.359Z,72.94
2016-09-17T12:40:36.032Z,72.2
2016-09-17T12:41:36.693Z,72.65
2016-09-17T12:42:37.353Z,71.97
2016-09-17T12:43:38.019Z,71.88
2016-09-17T12:44:38.668Z,72.74
2016-09-17T12:45:39.339Z,73.71
2016-09-17T12:46:40.015Z,74.19
2016-09-17T12:47:40.687Z,74.19
2016-09-17T12:48:41.357Z,74.29
2016-09-17T12:49:42.003Z,73.8
2016-09-17T12:50:42.657Z,73.71
2016-09-17T12:51:43.323Z,73.61
2016-09-17T12:52:43.995Z,73.99
2016-09-17T12:53:44.642Z,73.84
2016-09-17T12:54:45.292Z,73.74
2016-09-17T12:55:45.942Z,73.9
2016-09-17T12:56:46.589Z,72.17
2016-09-17T12:57:47.255Z,71.72
2016-09-17T12:58:47.911Z,71.49
2016-09-17T12:59:48.579Z,71.4
2016-09-17T13:00:49.227Z,72.36
2016-09-17T13:01:49.881Z,70.92
2016-09-17T13:02:50.526Z,71.49